createdAt,value
2022-10-30T00:01:49.958Z,101057.28
2022-10-30T00:04:16.525Z,101051.66
2022-10-30T00:06:42.796Z,101050.00
2022-10-30T00:09:09.074Z,101049.19
2022-10-30T00:11:35.328Z,101048.41
2022-10-30T00:14:01.587Z,101046.78
2022-10-30T00:16:27.878Z,101038.72
2022-10-30T00:18:54.595Z,101040.34
2022-10-30T00:21:20.869Z,101042.75
2022-10-30T00:23:48.413Z,101040.75
2022-10-30T00:26:15.431Z,101041.19
2022-10-30T00:28:41.992Z,101046.41
2022-10-30T00:31:08.479Z,101049.22
2022-10-30T00:33:34.961Z,101041.16
2022-10-30T00:36:01.539Z,101049.25
2022-10-30T00:38:27.981Z,101051.69
2022-10-30T00:40:54.425Z,101046.03
2022-10-30T00:43:37.412Z,101054.91
2022-10-30T00:46:18.573Z,101054.91
2022-10-30T00:48:48.208Z,101062.19
2022-10-30T00:51:14.868Z,101063.00
2022-10-30T00:53:42.726Z,101051.72
2022-10-30T00:56:09.744Z,101058.16
2022-10-30T00:58:37.895Z,101053.31
2022-10-30T01:01:05.831Z,101055.34
2022-10-30T01:03:32.687Z,101060.56
2022-10-30T01:06:01.813Z,101059.38
2022-10-30T01:08:28.351Z,101057.34
2022-10-30T01:10:57.247Z,101054.53
2022-10-30T01:13:24.086Z,101058.56
2022-10-30T01:15:59.723Z,101052.91
2022-10-30T01:18:26.115Z,101040.03
2022-10-30T01:20:55.243Z,101044.84
2022-10-30T01:23:50.962Z,101048.09
2022-10-30T01:26:23.125Z,101044.44
2022-10-30T01:29:08.330Z,101038.38
2022-10-30T01:31:37.631Z,101035.97
2022-10-30T01:34:13.650Z,101036.34
2022-10-30T01:36:43.196Z,101045.59
2022-10-30T01:39:14.649Z,101042.34
2022-10-30T01:41:41.096Z,101054.84
2022-10-30T01:44:10.996Z,101048.00
2022-10-30T01:46:45.257Z,101065.66
2022-10-30T01:49:14.446Z,101058.81
2022-10-30T01:51:43.911Z,101062.41
2022-10-30T01:54:22.514Z,101066.81
2022-10-30T01:56:48.755Z,101060.75
2022-10-30T01:59:21.628Z,101061.53
2022-10-30T02:01:48.488Z,101057.50
2022-10-30T02:04:14.824Z,101056.25
2022-10-30T02:06:41.143Z,101050.63
2022-10-30T02:09:07.400Z,101053.41
2022-10-30T02:11:35.729Z,101049.34
2022-10-30T02:14:05.664Z,101046.53
2022-10-30T02:16:34.438Z,101051.72
2022-10-30T02:19:01.884Z,101052.94
2022-10-30T02:21:28.164Z,101057.75
2022-10-30T02:23:54.373Z,101055.31
2022-10-30T02:26:20.632Z,101049.69
2022-10-30T02:28:46.853Z,101051.69
2022-10-30T02:31:14.621Z,101050.88
2022-10-30T02:33:44.270Z,101057.31
2022-10-30T02:36:10.787Z,101055.72
2022-10-30T02:38:37.233Z,101061.34
2022-10-30T02:41:03.463Z,101061.75
2022-10-30T02:43:29.737Z,101063.75
2022-10-30T02:45:56.171Z,101061.31
2022-10-30T02:48:22.518Z,101058.09
2022-10-30T02:50:48.772Z,101056.03
2022-10-30T02:53:15.281Z,101054.03
2022-10-30T02:55:41.562Z,101040.69
2022-10-30T02:58:07.783Z,101039.47
2022-10-30T03:00:34.008Z,101050.31
2022-10-30T03:03:00.290Z,101065.59
2022-10-30T03:05:26.559Z,101048.25
2022-10-30T03:07:54.353Z,101054.69
2022-10-30T03:10:20.593Z,101053.09
2022-10-30T03:12:46.939Z,101061.09
2022-10-30T03:15:13.184Z,101057.88
2022-10-30T03:20:10.848Z,101055.81
2022-10-30T03:22:37.257Z,101058.22
2022-10-30T03:25:03.835Z,101063.81
2022-10-30T03:27:30.240Z,101054.13
2022-10-30T03:29:56.655Z,101054.53
2022-10-30T03:34:54.225Z,101066.50
2022-10-30T03:37:20.532Z,101070.47
2022-10-30T03:39:46.796Z,101055.94
2022-10-30T03:42:13.068Z,101061.94
2022-10-30T03:44:39.380Z,101068.72
2022-10-30T03:47:05.861Z,101064.66
2022-10-30T03:49:32.079Z,101064.59
2022-10-30T03:51:58.312Z,101062.94
2022-10-30T03:54:24.600Z,101063.72
2022-10-30T03:56:50.832Z,101062.88
2022-10-30T04:01:44.969Z,101078.47
2022-10-30T04:04:11.520Z,101084.06
2022-10-30T04:06:37.949Z,101078.38
2022-10-30T04:09:04.222Z,101082.78
2022-10-30T04:11:30.538Z,101073.91
2022-10-30T04:13:56.957Z,101087.94
2022-10-30T04:16:23.228Z,101083.47
2022-10-30T04:18:49.541Z,101079.44
2022-10-30T04:21:15.799Z,101083.47
2022-10-30T04:23:42.416Z,101082.19
2022-10-30T04:26:08.653Z,101089.03
2022-10-30T04:28:34.945Z,101083.78
2022-10-30T04:31:01.237Z,101082.97
2022-10-30T04:33:28.680Z,101081.72
2022-10-30T04:35:54.914Z,101081.72
2022-10-30T04:38:21.231Z,101074.03
2022-10-30T04:40:47.739Z,101072.44
2022-10-30T04:43:14.451Z,101076.06
2022-10-30T04:45:41.102Z,101082.06
2022-10-30T04:48:11.808Z,101080.81
2022-10-30T04:50:39.000Z,101086.81
2022-10-30T04:53:07.732Z,101087.53
2022-10-30T04:55:34.106Z,101091.13
2022-10-30T04:58:03.056Z,101089.88
2022-10-30T05:00:29.676Z,101084.66
2022-10-30T05:02:58.062Z,101091.03
2022-10-30T05:05:24.294Z,101087.78
2022-10-30T05:07:50.723Z,101091.34
2022-10-30T05:10:18.262Z,101088.13
2022-10-30T05:12:45.438Z,101086.06
2022-10-30T05:15:12.765Z,101085.63
2022-10-30T05:17:39.602Z,101079.56
2022-10-30T05:20:06.846Z,101090.78
2022-10-30T05:22:33.092Z,101083.09
2022-10-30T05:24:59.354Z,101080.22
2022-10-30T05:27:25.665Z,101081.78
2022-10-30T05:29:52.084Z,101080.16
2022-10-30T05:32:18.426Z,101073.31
2022-10-30T05:34:44.844Z,101071.22
2022-10-30T05:37:11.248Z,101073.63
2022-10-30T05:39:37.485Z,101073.19
2022-10-30T05:42:03.788Z,101066.31
2022-10-30T05:44:55.056Z,101059.44
2022-10-30T05:47:16.557Z,101064.66
2022-10-30T05:49:42.768Z,101067.84
2022-10-30T05:52:09.041Z,101070.59
2022-10-30T05:54:35.312Z,101070.16
2022-10-30T05:57:01.589Z,101074.94
2022-10-30T05:59:27.836Z,101061.66
2022-10-30T06:01:54.329Z,101068.47
2022-10-30T06:04:20.596Z,101067.63
2022-10-30T06:06:47.283Z,101067.22
2022-10-30T06:09:13.539Z,101070.41
2022-10-30T06:11:39.783Z,101077.22
2022-10-30T06:14:06.233Z,101076.78
2022-10-30T06:19:03.864Z,101070.66
2022-10-30T06:21:30.068Z,101071.84
2022-10-30T06:23:56.566Z,101066.59
2022-10-30T06:26:23.010Z,101064.97
2022-10-30T06:28:49.480Z,101068.97
2022-10-30T06:31:15.758Z,101073.78
2022-10-30T06:33:42.118Z,101061.75
2022-10-30T06:36:08.748Z,101066.16
2022-10-30T06:38:35.075Z,101068.16
2022-10-30T06:41:01.350Z,101072.97
2022-10-30T06:43:27.628Z,101067.34
2022-10-30T06:45:53.965Z,101064.56
2022-10-30T06:48:20.275Z,101060.56
2022-10-30T06:50:46.563Z,101071.41
2022-10-30T06:53:13.859Z,101069.78
2022-10-30T06:55:40.126Z,101068.59
2022-10-30T06:58:06.335Z,101074.22
2022-10-30T07:00:32.577Z,101080.63
2022-10-30T07:03:00.337Z,101077.47
2022-10-30T07:05:27.755Z,101082.28
2022-10-30T07:07:55.701Z,101089.53
2022-10-30T07:10:22.152Z,101091.94
2022-10-30T07:12:52.480Z,101092.75
2022-10-30T07:15:18.990Z,101102.44
2022-10-30T07:17:51.317Z,101094.09
2022-10-30T07:20:17.722Z,101098.13
2022-10-30T07:22:43.984Z,101101.00
2022-10-30T07:25:10.393Z,101105.03
2022-10-30T07:27:43.740Z,101107.91
2022-10-30T07:30:11.434Z,101112.41
2022-10-30T07:32:37.751Z,101114.91
2022-10-30T07:35:04.404Z,101116.59
2022-10-30T07:37:30.736Z,101113.47
2022-10-30T07:39:57.029Z,101122.38
2022-10-30T07:42:24.081Z,101111.63
2022-10-30T07:44:50.417Z,101112.13
2022-10-30T07:47:16.655Z,101112.63
2022-10-30T07:49:42.928Z,101110.72
2022-10-30T07:52:14.529Z,101106.75
2022-10-30T07:54:43.518Z,101114.50
2022-10-30T07:57:09.727Z,101116.25
2022-10-30T07:59:35.999Z,101109.13
2022-10-30T08:02:02.476Z,101110.00
2022-10-30T08:04:28.889Z,101108.47
2022-10-30T08:06:55.207Z,101111.41
2022-10-30T08:09:21.428Z,101111.91
2022-10-30T08:11:47.755Z,101113.59
2022-10-30T08:14:14.177Z,101115.31
2022-10-30T08:16:40.585Z,101113.03
2022-10-30T08:19:06.804Z,101102.25
2022-10-30T08:21:33.410Z,101109.25
2022-10-30T08:23:59.641Z,101101.69
2022-10-30T08:26:26.360Z,101109.88
2022-10-30T08:28:52.867Z,101102.34
2022-10-30T08:31:19.425Z,101101.63
2022-10-30T08:33:45.810Z,101098.88
2022-10-30T08:36:12.094Z,101101.41
2022-10-30T08:38:38.482Z,101084.97
2022-10-30T08:41:04.811Z,101091.09
2022-10-30T08:43:31.039Z,101092.38
2022-10-30T08:45:57.636Z,101093.25
2022-10-30T08:48:23.951Z,101079.59
2022-10-30T08:50:50.211Z,101079.28
2022-10-30T08:53:16.667Z,101084.16
2022-10-30T08:55:42.881Z,101081.78
2022-10-30T08:58:09.140Z,101084.28
2022-10-30T09:00:35.788Z,101081.06
2022-10-30T09:03:02.444Z,101082.34
2022-10-30T09:05:29.175Z,101081.16
2022-10-30T09:07:56.951Z,101077.53
2022-10-30T09:10:23.476Z,101070.69
2022-10-30T09:12:54.097Z,101067.84
2022-10-30T09:15:20.374Z,101066.28
2022-10-30T09:17:48.161Z,101070.72
2022-10-30T09:20:14.370Z,101072.72
2022-10-30T09:22:41.833Z,101074.34
2022-10-30T09:25:08.304Z,101066.63
2022-10-30T09:27:38.440Z,101060.53
2022-10-30T09:30:05.240Z,101066.19
2022-10-30T09:32:31.767Z,101066.97
2022-10-30T09:34:58.008Z,101068.13
2022-10-30T09:37:24.471Z,101071.34
2022-10-30T09:39:50.748Z,101065.22
2022-10-30T09:42:20.214Z,101063.56
2022-10-30T09:45:23.038Z,101067.56
2022-10-30T09:48:02.973Z,101072.78
2022-10-30T09:50:46.005Z,101078.03
2022-10-30T09:53:26.231Z,101086.06
2022-10-30T09:55:55.951Z,101077.91
2022-10-30T09:58:35.439Z,101085.56
2022-10-30T10:01:07.241Z,101082.25
2022-10-30T10:03:42.203Z,101075.75
2022-10-30T10:06:13.197Z,101075.28
2022-10-30T10:08:41.891Z,101073.16
2022-10-30T10:11:16.658Z,101069.06
2022-10-30T10:13:51.991Z,101058.09
2022-10-30T10:16:22.678Z,101050.31
2022-10-30T10:18:52.292Z,101051.47
2022-10-30T10:21:24.024Z,101049.38
2022-10-30T10:23:51.546Z,101047.25
2022-10-30T10:26:27.783Z,101039.88
2022-10-30T10:28:57.148Z,101035.75
2022-10-30T10:31:43.721Z,101037.69
2022-10-30T10:34:16.205Z,101031.13
2022-10-30T10:36:48.274Z,101028.19
2022-10-30T10:39:27.947Z,101027.34
2022-10-30T10:41:57.375Z,101032.91
2022-10-30T10:44:26.621Z,101031.59
2022-10-30T10:46:53.858Z,101028.66
2022-10-30T10:49:40.132Z,101033.88
2022-10-30T10:52:13.229Z,101030.50
2022-10-30T10:54:43.561Z,101032.88
2022-10-30T10:57:16.119Z,101030.72
2022-10-30T10:59:43.906Z,101023.69
2022-10-30T11:02:16.058Z,101023.59
2022-10-30T11:04:46.791Z,101014.59
2022-10-30T11:07:16.186Z,101018.56
2022-10-30T11:09:42.792Z,101011.16
2022-10-30T11:12:09.192Z,101007.41
2022-10-30T11:14:39.822Z,101013.41
2022-10-30T11:17:26.858Z,101012.09
2022-10-30T11:20:02.046Z,101004.66
2022-10-30T11:22:37.137Z,101008.66
2022-10-30T11:25:39.103Z,101007.31
2022-10-30T11:28:05.642Z,100999.91
2022-10-30T11:30:33.569Z,100997.38
2022-10-30T11:33:19.941Z,101002.59
2022-10-30T11:35:46.178Z,100995.94
2022-10-30T11:38:14.303Z,100993.38
2022-10-30T11:40:46.344Z,100996.56
2022-10-30T11:43:20.511Z,100992.41
2022-10-30T11:45:47.595Z,100991.91
2022-10-30T11:48:26.072Z,100985.69
2022-10-30T11:50:55.155Z,100982.34
2022-10-30T11:53:23.837Z,100976.91
2022-10-30T11:55:50.779Z,100977.19
2022-10-30T11:58:32.419Z,100975.44
2022-10-30T12:01:04.245Z,100974.53
2022-10-30T12:03:34.659Z,100973.22
2022-10-30T12:06:21.448Z,100977.59
2022-10-30T12:08:58.854Z,100984.00
2022-10-30T12:11:32.643Z,100985.50
2022-10-30T12:13:59.248Z,100981.78
2022-10-30T12:16:26.052Z,100985.81
2022-10-30T12:18:55.009Z,100982.88
2022-10-30T12:21:21.301Z,100971.84
2022-10-30T12:23:58.978Z,100969.34
2022-10-30T12:26:26.449Z,100971.31
2022-10-30T12:28:59.095Z,100960.25
2022-10-30T12:31:36.031Z,100954.16
2022-10-30T12:36:50.550Z,100945.47
2022-10-30T12:39:30.121Z,100950.31
2022-10-30T12:42:15.006Z,100944.06
2022-10-30T12:44:44.369Z,100947.66
2022-10-30T12:47:13.659Z,100952.81
2022-10-30T12:49:41.461Z,100949.91
2022-10-30T12:52:07.854Z,100947.31
2022-10-30T12:54:39.818Z,100955.34
2022-10-30T12:57:13.688Z,100947.03
2022-10-30T12:59:46.769Z,100949.38
2022-10-30T13:02:23.827Z,100946.44
2022-10-30T13:04:55.531Z,100950.78
2022-10-30T13:07:40.699Z,100943.03
2022-10-30T13:10:25.826Z,100942.94
2022-10-30T13:12:57.661Z,100946.59
2022-10-30T13:15:26.861Z,100947.75
2022-10-30T13:17:53.182Z,100940.44
2022-10-30T13:20:20.174Z,100939.97
2022-10-30T13:22:52.070Z,100945.25
2022-10-30T13:25:21.996Z,100945.69
2022-10-30T13:27:57.530Z,100942.03
2022-10-30T13:30:28.571Z,100942.84
2022-10-30T13:33:08.773Z,100937.91
2022-10-30T13:35:54.319Z,100937.59
2022-10-30T13:38:39.490Z,100942.03
2022-10-30T13:41:18.071Z,100937.91
2022-10-30T13:43:47.601Z,100937.91
2022-10-30T13:46:17.554Z,100934.63
2022-10-30T13:48:55.020Z,100932.22
2022-10-30T13:51:24.264Z,100929.81
2022-10-30T13:53:56.405Z,100935.53
2022-10-30T13:56:22.995Z,100940.44
2022-10-30T13:59:00.052Z,100934.72
2022-10-30T14:01:32.191Z,100944.09
2022-10-30T14:04:21.859Z,100937.59
2022-10-30T14:06:55.932Z,100939.63
2022-10-30T14:09:45.372Z,100946.59
2022-10-30T14:12:30.210Z,100941.31
2022-10-30T14:14:56.451Z,100938.94
2022-10-30T14:17:22.864Z,100939.38
2022-10-30T14:20:19.592Z,100941.44
2022-10-30T14:23:05.803Z,100942.31
2022-10-30T14:25:32.129Z,100941.16
2022-10-30T14:27:58.667Z,100948.56
2022-10-30T14:30:26.952Z,100946.16
2022-10-30T14:32:53.588Z,100954.00
2022-10-30T14:35:33.149Z,100955.69
2022-10-30T14:38:15.352Z,100952.13
2022-10-30T14:41:02.715Z,100954.28
2022-10-30T14:43:49.260Z,100956.81
2022-10-30T14:46:47.844Z,100962.63
2022-10-30T14:49:29.150Z,100964.38
2022-10-30T14:52:06.079Z,100969.00
2022-10-30T14:54:39.041Z,100969.19
2022-10-30T14:57:20.163Z,100964.44
2022-10-30T14:59:46.391Z,100960.97
2022-10-30T15:02:12.968Z,100967.63
2022-10-30T15:04:55.285Z,100965.41
2022-10-30T15:07:27.718Z,100962.69
2022-10-30T15:09:57.036Z,100961.19
2022-10-30T15:12:37.495Z,100964.22
2022-10-30T15:15:09.511Z,100956.25
2022-10-30T15:17:43.450Z,100950.72
2022-10-30T15:20:18.056Z,100963.03
2022-10-30T15:22:45.328Z,100955.91
2022-10-30T15:25:16.589Z,100957.28
2022-10-30T15:27:44.483Z,100952.16
2022-10-30T15:30:15.983Z,100955.53
2022-10-30T15:32:42.264Z,100959.38
2022-10-30T15:35:22.140Z,100955.88
2022-10-30T15:38:02.201Z,100954.84
2022-10-30T15:40:29.921Z,100963.53
2022-10-30T15:42:58.285Z,100963.28
2022-10-30T15:45:33.890Z,100960.56
2022-10-30T15:48:09.367Z,100951.75
2022-10-30T15:50:39.461Z,100962.88
2022-10-30T15:53:05.956Z,100963.41
2022-10-30T15:55:33.011Z,100966.38
2022-10-30T15:58:03.292Z,100968.13
2022-10-30T16:00:32.843Z,100967.88
2022-10-30T16:03:00.723Z,100966.78
2022-10-30T16:05:27.581Z,100960.81
2022-10-30T16:07:58.509Z,100960.50
2022-10-30T16:10:27.235Z,100963.84
2022-10-30T16:12:57.072Z,100962.34
2022-10-30T16:15:34.817Z,100967.75
2022-10-30T16:18:13.314Z,100966.22
2022-10-30T16:20:41.648Z,100968.38
2022-10-30T16:23:08.124Z,100976.16
2022-10-30T16:25:38.402Z,100981.06
2022-10-30T16:28:22.228Z,100986.44
2022-10-30T16:30:48.831Z,100990.19
2022-10-30T16:33:15.778Z,100995.91
2022-10-30T16:35:42.221Z,100994.34
2022-10-30T16:38:10.756Z,101011.44
2022-10-30T16:40:37.163Z,101017.56
2022-10-30T16:43:05.258Z,101011.16
2022-10-30T16:45:45.091Z,101018.47
2022-10-30T16:50:49.620Z,101025.88
2022-10-30T16:53:23.355Z,101025.06
2022-10-30T16:55:50.522Z,101027.13
2022-10-30T16:58:17.188Z,101040.94
2022-10-30T17:00:51.747Z,101040.97
2022-10-30T17:03:20.051Z,101048.69
2022-10-30T17:05:55.995Z,101041.03
2022-10-30T17:08:22.358Z,101051.56
2022-10-30T17:10:48.937Z,101055.25
2022-10-30T17:13:27.769Z,101061.34
2022-10-30T17:15:54.043Z,101057.69
2022-10-30T17:18:21.669Z,101060.13
2022-10-30T17:21:02.460Z,101062.56
2022-10-30T17:23:29.075Z,101073.50
2022-10-30T17:25:55.316Z,101073.09
2022-10-30T17:28:26.077Z,101071.47
2022-10-30T17:30:52.372Z,101075.53
2022-10-30T17:33:45.012Z,101086.06
2022-10-30T17:36:11.677Z,101076.34
2022-10-30T17:38:38.381Z,101085.25
2022-10-30T17:41:05.627Z,101083.63
2022-10-30T17:43:34.197Z,101086.88
2022-10-30T17:46:00.455Z,101097.00
2022-10-30T17:48:28.285Z,101101.03
2022-10-30T17:50:55.619Z,101103.84
2022-10-30T17:53:23.165Z,101115.16
2022-10-30T17:55:57.384Z,101120.00
2022-10-30T17:58:23.668Z,101122.00
2022-10-30T18:00:50.064Z,101127.63
2022-10-30T18:03:16.564Z,101125.59
2022-10-30T18:05:43.595Z,101132.47
2022-10-30T18:08:09.859Z,101140.16
2022-10-30T18:10:36.296Z,101131.66
2022-10-30T18:13:02.961Z,101132.84
2022-10-30T18:15:39.085Z,101133.66
2022-10-30T18:18:05.907Z,101137.28
2022-10-30T18:20:33.705Z,101135.66
2022-10-30T18:23:00.282Z,101136.44
2022-10-30T18:25:30.138Z,101139.25
2022-10-30T18:27:56.409Z,101148.56
2022-10-30T18:30:23.192Z,101144.50
2022-10-30T18:32:49.964Z,101147.72
2022-10-30T18:35:33.583Z,101151.75
2022-10-30T18:37:59.909Z,101151.75
2022-10-30T18:40:26.217Z,101163.84
2022-10-30T18:42:52.679Z,101155.38
2022-10-30T18:45:20.793Z,101169.50
2022-10-30T18:47:47.084Z,101164.66
2022-10-30T18:50:13.485Z,101179.19
2022-10-30T18:52:39.919Z,101178.00
2022-10-30T18:55:15.157Z,101178.41
2022-10-30T18:57:41.527Z,101180.81
2022-10-30T19:00:09.866Z,101181.25
2022-10-30T19:02:36.296Z,101184.09
2022-10-30T19:05:21.358Z,101186.09
2022-10-30T19:07:47.779Z,101178.84
2022-10-30T19:10:14.069Z,101169.94
2022-10-30T19:12:51.456Z,101171.97
2022-10-30T19:15:30.116Z,101173.59
2022-10-30T19:17:56.460Z,101176.78
2022-10-30T19:20:37.628Z,101171.97
2022-10-30T19:23:27.367Z,101174.75
2022-10-30T19:25:53.749Z,101178.78
2022-10-30T19:28:20.776Z,101176.72
2022-10-30T19:30:50.280Z,101171.09
2022-10-30T19:33:18.182Z,101169.47
2022-10-30T19:35:44.494Z,101177.50
2022-10-30T19:38:11.606Z,101177.50
2022-10-30T19:40:38.933Z,101180.72
2022-10-30T19:43:07.738Z,101178.66
2022-10-30T19:45:34.745Z,101190.75
2022-10-30T19:48:02.096Z,101185.09
2022-10-30T19:50:34.475Z,101189.94
2022-10-30T19:53:01.985Z,101192.75
2022-10-30T19:55:29.657Z,101202.03
2022-10-30T19:57:57.251Z,101198.84
2022-10-30T20:00:28.380Z,101197.66
2022-10-30T20:02:55.608Z,101211.78
2022-10-30T20:05:23.364Z,101211.03
2022-10-30T20:08:11.866Z,101215.84
2022-10-30T20:10:39.540Z,101217.91
2022-10-30T20:13:06.635Z,101225.59
2022-10-30T20:15:33.247Z,101232.03
2022-10-30T20:17:59.774Z,101230.06
2022-10-30T20:20:30.073Z,101238.97
2022-10-30T20:22:56.908Z,101233.72
2022-10-30T20:25:24.514Z,101249.06
2022-10-30T20:27:55.098Z,101249.06
2022-10-30T20:30:22.733Z,101257.16
2022-10-30T20:32:50.257Z,101262.81
2022-10-30T20:35:17.964Z,101252.31
2022-10-30T20:37:54.892Z,101255.94
2022-10-30T20:40:21.195Z,101257.53
2022-10-30T20:45:20.814Z,101263.59
2022-10-30T20:47:50.311Z,101270.84
2022-10-30T20:50:17.009Z,101270.03
2022-10-30T20:52:43.317Z,101272.47
2022-10-30T20:55:10.883Z,101274.44
2022-10-30T20:57:38.833Z,101280.88
2022-10-30T21:00:07.613Z,101279.28
2022-10-30T21:02:34.417Z,101280.84
2022-10-30T21:05:11.503Z,101285.66
2022-10-30T21:07:43.738Z,101282.00
2022-10-30T21:10:10.237Z,101286.00
2022-10-30T21:12:36.772Z,101286.34
2022-10-30T21:15:05.494Z,101285.91
2022-10-30T21:17:34.451Z,101285.06
2022-10-30T21:20:00.811Z,101291.09
2022-10-30T21:22:27.128Z,101289.44
2022-10-30T21:24:53.369Z,101294.25
2022-10-30T21:27:19.794Z,101297.88
2022-10-30T21:29:46.354Z,101299.03
2022-10-30T21:32:13.438Z,101296.97
2022-10-30T21:34:39.898Z,101301.38
2022-10-30T21:37:08.072Z,101301.72
2022-10-30T21:39:34.306Z,101310.16
2022-10-30T21:42:00.603Z,101307.28
2022-10-30T21:44:26.903Z,101312.94
2022-10-30T21:46:53.189Z,101309.25
2022-10-30T21:49:19.462Z,101313.25
2022-10-30T21:51:46.864Z,101315.22
2022-10-30T21:54:14.410Z,101310.72
2022-10-30T21:56:41.013Z,101310.69
2022-10-30T21:59:10.175Z,101309.00
2022-10-30T22:01:38.215Z,101309.78
2022-10-30T22:04:06.649Z,101314.16
2022-10-30T22:06:33.264Z,101315.78
2022-10-30T22:08:59.683Z,101307.25
2022-10-30T22:11:27.047Z,101312.03
2022-10-30T22:13:54.717Z,101308.38
2022-10-30T22:16:21.085Z,101313.59
2022-10-30T22:18:47.383Z,101319.56
2022-10-30T22:21:13.671Z,101319.53
2022-10-30T22:23:40.275Z,101329.59
2022-10-30T22:26:08.473Z,101331.09
2022-10-30T22:28:35.530Z,101336.31
2022-10-30T22:31:05.167Z,101337.47
2022-10-30T22:33:32.595Z,101336.59
2022-10-30T22:36:02.944Z,101338.19
2022-10-30T22:38:29.301Z,101345.78
2022-10-30T22:40:55.515Z,101353.78
2022-10-30T22:43:21.812Z,101349.28
2022-10-30T22:45:53.992Z,101355.72
2022-10-30T22:48:20.353Z,101362.09
2022-10-30T22:50:46.614Z,101356.41
2022-10-30T22:53:12.829Z,101362.00
2022-10-30T22:55:39.252Z,101369.56
2022-10-30T22:58:05.749Z,101363.88
2022-10-30T23:00:33.369Z,101367.44
2022-10-30T23:03:00.070Z,101372.25
2022-10-30T23:05:26.527Z,101373.84
2022-10-30T23:07:53.215Z,101384.28
2022-10-30T23:10:19.455Z,101374.19
2022-10-30T23:12:45.754Z,101379.81
2022-10-30T23:15:11.998Z,101381.47
2022-10-30T23:17:38.263Z,101385.09
2022-10-30T23:20:06.953Z,101378.66
2022-10-30T23:22:33.192Z,101377.88
2022-10-30T23:24:59.667Z,101378.28
2022-10-30T23:27:25.868Z,101376.69
2022-10-30T23:29:52.242Z,101383.50
2022-10-30T23:32:18.473Z,101386.34
2022-10-30T23:34:44.720Z,101389.97
2022-10-30T23:37:11.954Z,101384.72
2022-10-30T23:39:38.356Z,101386.34
2022-10-30T23:42:04.630Z,101387.94
2022-10-30T23:44:31.536Z,101385.59
2022-10-30T23:46:58.585Z,101386.81
2022-10-30T23:49:24.912Z,101390.13
2022-10-30T23:51:51.186Z,101394.56
2022-10-30T23:54:17.673Z,101396.97
2022-10-30T23:56:43.952Z,101399.00
2022-10-30T23:59:10.428Z,101394.16
